sensor_id;sensor_type;location;lat;lon;timestamp;P1;durP1;ratioP1;P2;durP2;ratioP2
76176;SDS011;64938;47.696;8.066;2023-02-03T00:00:45;6.30;;;4.50;;
76176;SDS011;64938;47.696;8.066;2023-02-03T00:03:11;6.87;;;3.97;;
76176;SDS011;64938;47.696;8.066;2023-02-03T00:05:36;4.90;;;4.10;;
76176;SDS011;64938;47.696;8.066;2023-02-03T00:08:03;5.60;;;3.87;;
76176;SDS011;64938;47.696;8.066;2023-02-03T00:10:30;7.80;;;4.40;;
76176;SDS011;64938;47.696;8.066;2023-02-03T00:12:56;7.30;;;4.13;;
76176;SDS011;64938;47.696;8.066;2023-02-03T00:15:22;5.97;;;3.97;;
76176;SDS011;64938;47.696;8.066;2023-02-03T00:17:48;6.10;;;4.70;;
76176;SDS011;64938;47.696;8.066;2023-02-03T00:20:13;7.30;;;4.70;;
76176;SDS011;64938;47.696;8.066;2023-02-03T00:22:39;5.80;;;3.93;;
76176;SDS011;64938;47.696;8.066;2023-02-03T00:25:04;4.80;;;4.17;;
76176;SDS011;64938;47.696;8.066;2023-02-03T00:27:30;5.20;;;3.63;;
76176;SDS011;64938;47.696;8.066;2023-02-03T00:29:56;6.30;;;4.03;;
76176;SDS011;64938;47.696;8.066;2023-02-03T00:32:22;8.43;;;4.43;;
76176;SDS011;64938;47.696;8.066;2023-02-03T00:34:47;7.60;;;4.47;;
76176;SDS011;64938;47.696;8.066;2023-02-03T00:37:13;5.87;;;4.10;;
76176;SDS011;64938;47.696;8.066;2023-02-03T00:39:39;5.80;;;4.30;;
76176;SDS011;64938;47.696;8.066;2023-02-03T00:42:04;5.93;;;4.33;;
76176;SDS011;64938;47.696;8.066;2023-02-03T00:44:30;7.73;;;4.10;;
76176;SDS011;64938;47.696;8.066;2023-02-03T00:46:56;5.63;;;3.87;;
76176;SDS011;64938;47.696;8.066;2023-02-03T00:49:22;6.80;;;4.57;;
76176;SDS011;64938;47.696;8.066;2023-02-03T00:51:47;6.17;;;4.63;;
76176;SDS011;64938;47.696;8.066;2023-02-03T00:54:13;7.50;;;4.13;;
76176;SDS011;64938;47.696;8.066;2023-02-03T00:56:39;5.30;;;4.00;;
76176;SDS011;64938;47.696;8.066;2023-02-03T00:59:04;5.77;;;4.00;;
76176;SDS011;64938;47.696;8.066;2023-02-03T01:01:31;8.63;;;4.17;;
76176;SDS011;64938;47.696;8.066;2023-02-03T01:03:57;8.83;;;4.33;;
76176;SDS011;64938;47.696;8.066;2023-02-03T01:06:26;6.33;;;4.47;;
76176;SDS011;64938;47.696;8.066;2023-02-03T01:08:52;5.63;;;3.90;;
76176;SDS011;64938;47.696;8.066;2023-02-03T01:11:20;6.03;;;4.10;;
76176;SDS011;64938;47.696;8.066;2023-02-03T01:13:46;7.50;;;4.20;;
76176;SDS011;64938;47.696;8.066;2023-02-03T01:16:14;7.47;;;4.70;;
76176;SDS011;64938;47.696;8.066;2023-02-03T01:18:41;4.90;;;4.10;;
76176;SDS011;64938;47.696;8.066;2023-02-03T01:21:11;8.53;;;4.70;;
76176;SDS011;64938;47.696;8.066;2023-02-03T01:23:43;8.03;;;4.87;;
76176;SDS011;64938;47.696;8.066;2023-02-03T01:26:10;6.07;;;4.20;;
76176;SDS011;64938;47.696;8.066;2023-02-03T01:28:37;5.07;;;3.80;;
76176;SDS011;64938;47.696;8.066;2023-02-03T01:31:16;6.57;;;4.30;;
76176;SDS011;64938;47.696;8.066;2023-02-03T01:33:44;6.53;;;4.43;;
76176;SDS011;64938;47.696;8.066;2023-02-03T01:36:18;6.00;;;4.40;;
76176;SDS011;64938;47.696;8.066;2023-02-03T01:38:44;5.23;;;4.73;;
76176;SDS011;64938;47.696;8.066;2023-02-03T01:41:11;7.67;;;4.80;;
76176;SDS011;64938;47.696;8.066;2023-02-03T01:43:39;10.37;;;5.10;;
76176;SDS011;64938;47.696;8.066;2023-02-03T01:51:34;8.10;;;4.63;;
76176;SDS011;64938;47.696;8.066;2023-02-03T01:54:04;5.67;;;5.17;;
76176;SDS011;64938;47.696;8.066;2023-02-03T01:56:32;6.20;;;4.70;;
76176;SDS011;64938;47.696;8.066;2023-02-03T01:58:59;6.63;;;4.83;;
76176;SDS011;64938;47.696;8.066;2023-02-03T02:01:25;7.00;;;4.10;;
76176;SDS011;64938;47.696;8.066;2023-02-03T02:03:52;10.60;;;4.93;;
76176;SDS011;64938;47.696;8.066;2023-02-03T02:06:20;6.37;;;4.60;;
76176;SDS011;64938;47.696;8.066;2023-02-03T02:08:50;6.50;;;4.70;;
76176;SDS011;64938;47.696;8.066;2023-02-03T02:11:16;8.00;;;5.00;;
76176;SDS011;64938;47.696;8.066;2023-02-03T02:13:44;6.33;;;4.70;;
76176;SDS011;64938;47.696;8.066;2023-02-03T02:24:46;6.70;;;4.50;;
76176;SDS011;64938;47.696;8.066;2023-02-03T02:33:07;6.00;;;5.03;;
76176;SDS011;64938;47.696;8.066;2023-02-03T02:38:03;8.40;;;5.10;;
76176;SDS011;64938;47.696;8.066;2023-02-03T02:40:35;6.83;;;4.67;;
76176;SDS011;64938;47.696;8.066;2023-02-03T02:43:09;8.57;;;5.00;;
76176;SDS011;64938;47.696;8.066;2023-02-03T02:45:44;7.47;;;5.07;;
76176;SDS011;64938;47.696;8.066;2023-02-03T02:48:54;8.20;;;5.20;;
76176;SDS011;64938;47.696;8.066;2023-02-03T02:51:39;7.13;;;5.70;;
76176;SDS011;64938;47.696;8.066;2023-02-03T02:54:09;7.17;;;5.23;;
76176;SDS011;64938;47.696;8.066;2023-02-03T02:56:37;6.30;;;5.23;;
76176;SDS011;64938;47.696;8.066;2023-02-03T02:59:04;6.63;;;5.07;;
76176;SDS011;64938;47.696;8.066;2023-02-03T03:01:30;9.50;;;5.30;;
76176;SDS011;64938;47.696;8.066;2023-02-03T03:03:57;8.60;;;6.07;;
76176;SDS011;64938;47.696;8.066;2023-02-03T03:06:25;7.00;;;5.40;;
76176;SDS011;64938;47.696;8.066;2023-02-03T03:09:18;9.60;;;5.97;;
76176;SDS011;64938;47.696;8.066;2023-02-03T03:11:50;6.27;;;5.10;;
76176;SDS011;64938;47.696;8.066;2023-02-03T03:14:25;7.90;;;4.90;;
76176;SDS011;64938;47.696;8.066;2023-02-03T03:16:53;7.73;;;5.10;;
76176;SDS011;64938;47.696;8.066;2023-02-03T03:19:37;8.97;;;5.20;;
76176;SDS011;64938;47.696;8.066;2023-02-03T03:22:05;7.53;;;4.60;;
76176;SDS011;64938;47.696;8.066;2023-02-03T03:24:42;5.87;;;5.27;;
76176;SDS011;64938;47.696;8.066;2023-02-03T03:27:17;6.87;;;5.00;;
76176;SDS011;64938;47.696;8.066;2023-02-03T03:29:46;5.97;;;5.40;;
76176;SDS011;64938;47.696;8.066;2023-02-03T03:32:13;8.87;;;5.03;;
76176;SDS011;64938;47.696;8.066;2023-02-03T03:34:38;9.80;;;5.50;;
76176;SDS011;64938;47.696;8.066;2023-02-03T03:47:53;9.40;;;5.60;;
76176;SDS011;64938;47.696;8.066;2023-02-03T03:50:25;7.73;;;5.40;;
76176;SDS011;64938;47.696;8.066;2023-02-03T03:52:53;7.47;;;5.10;;
76176;SDS011;64938;47.696;8.066;2023-02-03T03:55:20;8.40;;;5.40;;
76176;SDS011;64938;47.696;8.066;2023-02-03T03:57:57;9.53;;;6.10;;
76176;SDS011;64938;47.696;8.066;2023-02-03T04:00:29;6.13;;;5.53;;
76176;SDS011;64938;47.696;8.066;2023-02-03T04:02:57;6.23;;;5.27;;
76176;SDS011;64938;47.696;8.066;2023-02-03T04:05:25;8.13;;;6.10;;
76176;SDS011;64938;47.696;8.066;2023-02-03T04:07:51;8.70;;;5.70;;
76176;SDS011;64938;47.696;8.066;2023-02-03T04:10:35;7.43;;;5.30;;
76176;SDS011;64938;47.696;8.066;2023-02-03T04:13:05;9.37;;;4.90;;
76176;SDS011;64938;47.696;8.066;2023-02-03T04:15:32;9.90;;;7.27;;
76176;SDS011;64938;47.696;8.066;2023-02-03T04:17:58;10.87;;;5.50;;
76176;SDS011;64938;47.696;8.066;2023-02-03T04:20:25;8.63;;;6.60;;
76176;SDS011;64938;47.696;8.066;2023-02-03T04:22:52;8.30;;;5.37;;
76176;SDS011;64938;47.696;8.066;2023-02-03T04:25:17;6.83;;;5.20;;
76176;SDS011;64938;47.696;8.066;2023-02-03T04:27:43;6.27;;;5.00;;
76176;SDS011;64938;47.696;8.066;2023-02-03T04:30:09;11.57;;;5.90;;
76176;SDS011;64938;47.696;8.066;2023-02-03T04:32:35;6.53;;;5.60;;
76176;SDS011;64938;47.696;8.066;2023-02-03T04:35:01;10.37;;;5.83;;
76176;SDS011;64938;47.696;8.066;2023-02-03T04:37:27;7.30;;;5.20;;
76176;SDS011;64938;47.696;8.066;2023-02-03T04:39:53;7.60;;;5.13;;
76176;SDS011;64938;47.696;8.066;2023-02-03T04:42:22;6.77;;;4.93;;
76176;SDS011;64938;47.696;8.066;2023-02-03T04:44:48;5.90;;;4.93;;
76176;SDS011;64938;47.696;8.066;2023-02-03T04:47:14;6.47;;;4.43;;
76176;SDS011;64938;47.696;8.066;2023-02-03T04:49:40;5.03;;;4.40;;
76176;SDS011;64938;47.696;8.066;2023-02-03T04:52:06;5.93;;;4.03;;
76176;SDS011;64938;47.696;8.066;2023-02-03T04:54:31;8.40;;;4.50;;
76176;SDS011;64938;47.696;8.066;2023-02-03T04:56:58;5.77;;;3.50;;
76176;SDS011;64938;47.696;8.066;2023-02-03T04:59:23;4.03;;;3.27;;
76176;SDS011;64938;47.696;8.066;2023-02-03T05:01:49;4.40;;;3.60;;
76176;SDS011;64938;47.696;8.066;2023-02-03T05:04:15;4.73;;;3.93;;
76176;SDS011;64938;47.696;8.066;2023-02-03T05:06:40;4.00;;;3.17;;
76176;SDS011;64938;47.696;8.066;2023-02-03T05:09:06;4.83;;;3.80;;
76176;SDS011;64938;47.696;8.066;2023-02-03T05:11:32;7.37;;;4.00;;
76176;SDS011;64938;47.696;8.066;2023-02-03T05:13:57;4.40;;;4.00;;
76176;SDS011;64938;47.696;8.066;2023-02-03T05:16:23;5.23;;;4.23;;
76176;SDS011;64938;47.696;8.066;2023-02-03T05:18:48;5.13;;;3.60;;
76176;SDS011;64938;47.696;8.066;2023-02-03T05:21:14;4.47;;;4.00;;
76176;SDS011;64938;47.696;8.066;2023-02-03T05:23:40;6.63;;;3.93;;
76176;SDS011;64938;47.696;8.066;2023-02-03T05:26:05;5.53;;;4.37;;
76176;SDS011;64938;47.696;8.066;2023-02-03T05:28:31;6.83;;;4.30;;
76176;SDS011;64938;47.696;8.066;2023-02-03T05:30:57;5.40;;;4.07;;
76176;SDS011;64938;47.696;8.066;2023-02-03T05:33:23;18.00;;;5.73;;
76176;SDS011;64938;47.696;8.066;2023-02-03T05:35:49;19.03;;;5.60;;
76176;SDS011;64938;47.696;8.066;2023-02-03T05:38:15;5.90;;;4.50;;
76176;SDS011;64938;47.696;8.066;2023-02-03T05:40:43;4.70;;;4.07;;
76176;SDS011;64938;47.696;8.066;2023-02-03T05:43:27;11.77;;;4.20;;
76176;SDS011;64938;47.696;8.066;2023-02-03T05:45:53;36.93;;;7.13;;
76176;SDS011;64938;47.696;8.066;2023-02-03T05:48:19;24.00;;;5.83;;
76176;SDS011;64938;47.696;8.066;2023-02-03T05:50:44;7.30;;;3.93;;
76176;SDS011;64938;47.696;8.066;2023-02-03T05:53:10;116.27;;;17.33;;
76176;SDS011;64938;47.696;8.066;2023-02-03T05:55:35;14.87;;;5.00;;
76176;SDS011;64938;47.696;8.066;2023-02-03T05:58:01;37.73;;;6.83;;
76176;SDS011;64938;47.696;8.066;2023-02-03T06:00:28;49.70;;;7.30;;
76176;SDS011;64938;47.696;8.066;2023-02-03T06:02:54;35.27;;;7.90;;
76176;SDS011;64938;47.696;8.066;2023-02-03T06:05:26;6.90;;;4.40;;
76176;SDS011;64938;47.696;8.066;2023-02-03T06:07:52;6.17;;;4.10;;
76176;SDS011;64938;47.696;8.066;2023-02-03T06:10:18;24.60;;;6.17;;
76176;SDS011;64938;47.696;8.066;2023-02-03T06:12:44;24.93;;;6.13;;
76176;SDS011;64938;47.696;8.066;2023-02-03T06:15:09;10.37;;;4.90;;
76176;SDS011;64938;47.696;8.066;2023-02-03T06:17:35;8.77;;;4.30;;
76176;SDS011;64938;47.696;8.066;2023-02-03T06:20:05;4.27;;;3.97;;
76176;SDS011;64938;47.696;8.066;2023-02-03T06:22:32;9.30;;;4.27;;
76176;SDS011;64938;47.696;8.066;2023-02-03T06:24:57;5.23;;;4.03;;
76176;SDS011;64938;47.696;8.066;2023-02-03T06:27:23;10.50;;;4.00;;
76176;SDS011;64938;47.696;8.066;2023-02-03T06:29:49;8.23;;;4.30;;
76176;SDS011;64938;47.696;8.066;2023-02-03T06:32:14;5.80;;;4.60;;
76176;SDS011;64938;47.696;8.066;2023-02-03T06:34:40;8.30;;;5.00;;
76176;SDS011;64938;47.696;8.066;2023-02-03T06:37:08;6.80;;;4.57;;
76176;SDS011;64938;47.696;8.066;2023-02-03T06:39:34;6.97;;;4.43;;
76176;SDS011;64938;47.696;8.066;2023-02-03T06:42:00;6.03;;;5.30;;
76176;SDS011;64938;47.696;8.066;2023-02-03T06:44:26;6.47;;;4.67;;
76176;SDS011;64938;47.696;8.066;2023-02-03T06:46:56;7.83;;;4.93;;
76176;SDS011;64938;47.696;8.066;2023-02-03T06:49:22;8.90;;;4.97;;
76176;SDS011;64938;47.696;8.066;2023-02-03T06:51:48;6.37;;;5.30;;
76176;SDS011;64938;47.696;8.066;2023-02-03T06:54:14;5.90;;;5.30;;
76176;SDS011;64938;47.696;8.066;2023-02-03T06:56:40;9.73;;;5.40;;
76176;SDS011;64938;47.696;8.066;2023-02-03T06:59:06;6.30;;;5.30;;
76176;SDS011;64938;47.696;8.066;2023-02-03T07:01:32;7.20;;;5.73;;
76176;SDS011;64938;47.696;8.066;2023-02-03T07:03:58;6.40;;;5.50;;
76176;SDS011;64938;47.696;8.066;2023-02-03T07:06:24;6.00;;;5.40;;
76176;SDS011;64938;47.696;8.066;2023-02-03T07:08:58;9.97;;;5.80;;
76176;SDS011;64938;47.696;8.066;2023-02-03T07:11:24;5.70;;;5.20;;
76176;SDS011;64938;47.696;8.066;2023-02-03T07:13:50;7.67;;;4.83;;
76176;SDS011;64938;47.696;8.066;2023-02-03T07:16:16;6.53;;;5.10;;
76176;SDS011;64938;47.696;8.066;2023-02-03T07:18:41;6.80;;;5.13;;
76176;SDS011;64938;47.696;8.066;2023-02-03T07:21:07;5.93;;;5.30;;
76176;SDS011;64938;47.696;8.066;2023-02-03T07:23:33;7.70;;;5.07;;
76176;SDS011;64938;47.696;8.066;2023-02-03T07:25:59;8.53;;;5.37;;
76176;SDS011;64938;47.696;8.066;2023-02-03T07:28:25;8.83;;;5.87;;
76176;SDS011;64938;47.696;8.066;2023-02-03T07:30:51;10.50;;;5.33;;
76176;SDS011;64938;47.696;8.066;2023-02-03T07:33:16;7.93;;;5.50;;
76176;SDS011;64938;47.696;8.066;2023-02-03T07:35:43;5.40;;;4.90;;
76176;SDS011;64938;47.696;8.066;2023-02-03T07:38:08;5.50;;;5.00;;
76176;SDS011;64938;47.696;8.066;2023-02-03T07:40:34;7.37;;;4.90;;
76176;SDS011;64938;47.696;8.066;2023-02-03T07:43:00;5.60;;;4.70;;
76176;SDS011;64938;47.696;8.066;2023-02-03T07:45:25;5.63;;;4.60;;
76176;SDS011;64938;47.696;8.066;2023-02-03T07:47:51;9.13;;;5.07;;
76176;SDS011;64938;47.696;8.066;2023-02-03T07:50:17;7.90;;;4.63;;
76176;SDS011;64938;47.696;8.066;2023-02-03T07:52:42;4.70;;;4.07;;
76176;SDS011;64938;47.696;8.066;2023-02-03T07:55:08;5.40;;;4.17;;
76176;SDS011;64938;47.696;8.066;2023-02-03T07:57:36;6.40;;;3.60;;
76176;SDS011;64938;47.696;8.066;2023-02-03T08:00:07;5.93;;;4.10;;
76176;SDS011;64938;47.696;8.066;2023-02-03T08:02:34;5.90;;;3.93;;
76176;SDS011;64938;47.696;8.066;2023-02-03T08:05:00;4.17;;;3.67;;
76176;SDS011;64938;47.696;8.066;2023-02-03T08:07:26;4.40;;;3.70;;
76176;SDS011;64938;47.696;8.066;2023-02-03T08:09:51;3.90;;;3.50;;
76176;SDS011;64938;47.696;8.066;2023-02-03T08:12:17;3.30;;;3.00;;
76176;SDS011;64938;47.696;8.066;2023-02-03T08:14:42;6.40;;;3.77;;
76176;SDS011;64938;47.696;8.066;2023-02-03T08:17:08;4.30;;;3.90;;
76176;SDS011;64938;47.696;8.066;2023-02-03T08:19:33;3.40;;;3.10;;
76176;SDS011;64938;47.696;8.066;2023-02-03T08:21:59;4.13;;;3.07;;
76176;SDS011;64938;47.696;8.066;2023-02-03T08:24:25;3.90;;;3.50;;
76176;SDS011;64938;47.696;8.066;2023-02-03T08:26:50;4.20;;;3.13;;
76176;SDS011;64938;47.696;8.066;2023-02-03T08:29:17;7.00;;;3.57;;
76176;SDS011;64938;47.696;8.066;2023-02-03T08:31:45;5.20;;;2.97;;
76176;SDS011;64938;47.696;8.066;2023-02-03T08:34:11;4.57;;;3.07;;
76176;SDS011;64938;47.696;8.066;2023-02-03T08:36:36;3.63;;;3.23;;
76176;SDS011;64938;47.696;8.066;2023-02-03T08:39:07;3.60;;;3.30;;
76176;SDS011;64938;47.696;8.066;2023-02-03T08:41:33;8.20;;;3.43;;
76176;SDS011;64938;47.696;8.066;2023-02-03T08:43:59;4.50;;;3.43;;
76176;SDS011;64938;47.696;8.066;2023-02-03T08:46:25;6.63;;;4.27;;
76176;SDS011;64938;47.696;8.066;2023-02-03T08:48:52;4.73;;;4.13;;
76176;SDS011;64938;47.696;8.066;2023-02-03T08:51:20;4.30;;;3.90;;
76176;SDS011;64938;47.696;8.066;2023-02-03T08:53:46;7.00;;;4.30;;
76176;SDS011;64938;47.696;8.066;2023-02-03T08:56:11;4.10;;;3.70;;
76176;SDS011;64938;47.696;8.066;2023-02-03T08:58:37;7.63;;;4.93;;
76176;SDS011;64938;47.696;8.066;2023-02-03T09:01:10;5.23;;;4.33;;
76176;SDS011;64938;47.696;8.066;2023-02-03T09:03:37;10.37;;;7.47;;
76176;SDS011;64938;47.696;8.066;2023-02-03T09:06:04;5.53;;;4.77;;
76176;SDS011;64938;47.696;8.066;2023-02-03T09:08:30;8.47;;;6.70;;
76176;SDS011;64938;47.696;8.066;2023-02-03T09:10:55;6.03;;;4.80;;
76176;SDS011;64938;47.696;8.066;2023-02-03T09:13:21;7.67;;;5.50;;
76176;SDS011;64938;47.696;8.066;2023-02-03T09:15:47;6.77;;;5.53;;
76176;SDS011;64938;47.696;8.066;2023-02-03T09:18:13;4.67;;;4.10;;
76176;SDS011;64938;47.696;8.066;2023-02-03T09:20:38;5.23;;;4.10;;
76176;SDS011;64938;47.696;8.066;2023-02-03T09:23:04;7.87;;;5.47;;
76176;SDS011;64938;47.696;8.066;2023-02-03T09:25:29;6.20;;;5.10;;
76176;SDS011;64938;47.696;8.066;2023-02-03T09:27:55;5.20;;;4.70;;
76176;SDS011;64938;47.696;8.066;2023-02-03T09:30:21;10.13;;;5.43;;
76176;SDS011;64938;47.696;8.066;2023-02-03T09:32:46;6.40;;;4.53;;
76176;SDS011;64938;47.696;8.066;2023-02-03T09:35:18;6.37;;;4.20;;
76176;SDS011;64938;47.696;8.066;2023-02-03T09:37:44;5.30;;;4.27;;
76176;SDS011;64938;47.696;8.066;2023-02-03T09:40:17;6.40;;;4.37;;
76176;SDS011;64938;47.696;8.066;2023-02-03T09:45:20;5.80;;;4.23;;
76176;SDS011;64938;47.696;8.066;2023-02-03T09:47:52;5.00;;;4.50;;
76176;SDS011;64938;47.696;8.066;2023-02-03T09:50:20;4.90;;;4.40;;
76176;SDS011;64938;47.696;8.066;2023-02-03T09:52:48;5.60;;;4.57;;
76176;SDS011;64938;47.696;8.066;2023-02-03T09:57:59;4.60;;;3.30;;
76176;SDS011;64938;47.696;8.066;2023-02-03T10:03:40;4.80;;;3.57;;
76176;SDS011;64938;47.696;8.066;2023-02-03T10:09:16;5.27;;;2.70;;
76176;SDS011;64938;47.696;8.066;2023-02-03T10:19:44;2.77;;;2.40;;
76176;SDS011;64938;47.696;8.066;2023-02-03T10:22:17;2.73;;;2.50;;
76176;SDS011;64938;47.696;8.066;2023-02-03T10:27:16;3.93;;;2.37;;
76176;SDS011;64938;47.696;8.066;2023-02-03T10:29:44;2.80;;;2.60;;
76176;SDS011;64938;47.696;8.066;2023-02-03T10:32:15;2.73;;;2.33;;
76176;SDS011;64938;47.696;8.066;2023-02-03T10:34:42;2.97;;;2.23;;
76176;SDS011;64938;47.696;8.066;2023-02-03T10:37:55;4.00;;;2.30;;
76176;SDS011;64938;47.696;8.066;2023-02-03T10:39:59;4.33;;;2.30;;
76176;SDS011;64938;47.696;8.066;2023-02-03T10:42:26;9.00;;;2.90;;
76176;SDS011;64938;47.696;8.066;2023-02-03T10:45:15;2.43;;;2.23;;
76176;SDS011;64938;47.696;8.066;2023-02-03T10:47:47;3.70;;;2.60;;
76176;SDS011;64938;47.696;8.066;2023-02-03T10:50:22;3.43;;;2.40;;
76176;SDS011;64938;47.696;8.066;2023-02-03T10:55:43;3.90;;;2.00;;
76176;SDS011;64938;47.696;8.066;2023-02-03T10:58:14;3.87;;;1.70;;
76176;SDS011;64938;47.696;8.066;2023-02-03T11:01:11;6.07;;;2.07;;
76176;SDS011;64938;47.696;8.066;2023-02-03T11:03:44;2.37;;;1.90;;
76176;SDS011;64938;47.696;8.066;2023-02-03T11:06:19;2.77;;;2.00;;
76176;SDS011;64938;47.696;8.066;2023-02-03T11:08:46;2.40;;;2.20;;
76176;SDS011;64938;47.696;8.066;2023-02-03T11:11:13;2.83;;;2.07;;
76176;SDS011;64938;47.696;8.066;2023-02-03T11:13:39;3.50;;;2.00;;
76176;SDS011;64938;47.696;8.066;2023-02-03T11:16:11;2.00;;;1.80;;
76176;SDS011;64938;47.696;8.066;2023-02-03T11:18:40;1.73;;;1.53;;
76176;SDS011;64938;47.696;8.066;2023-02-03T11:21:09;4.13;;;1.50;;
76176;SDS011;64938;47.696;8.066;2023-02-03T11:23:43;1.40;;;1.30;;
76176;SDS011;64938;47.696;8.066;2023-02-03T11:26:14;1.63;;;1.53;;
76176;SDS011;64938;47.696;8.066;2023-02-03T11:28:41;2.40;;;1.50;;
76176;SDS011;64938;47.696;8.066;2023-02-03T11:31:15;2.23;;;1.60;;
76176;SDS011;64938;47.696;8.066;2023-02-03T11:33:45;2.23;;;2.03;;
76176;SDS011;64938;47.696;8.066;2023-02-03T11:36:11;1.87;;;1.63;;
76176;SDS011;64938;47.696;8.066;2023-02-03T11:38:38;1.50;;;1.40;;
76176;SDS011;64938;47.696;8.066;2023-02-03T11:41:12;2.00;;;1.80;;
76176;SDS011;64938;47.696;8.066;2023-02-03T11:43:40;1.50;;;1.40;;
76176;SDS011;64938;47.696;8.066;2023-02-03T11:46:05;1.27;;;1.17;;
76176;SDS011;64938;47.696;8.066;2023-02-03T11:48:42;1.30;;;0.87;;
76176;SDS011;64938;47.696;8.066;2023-02-03T11:51:21;2.23;;;1.20;;
76176;SDS011;64938;47.696;8.066;2023-02-03T12:16:12;0.90;;;0.63;;
76176;SDS011;64938;47.696;8.066;2023-02-03T12:18:55;0.70;;;0.60;;
76176;SDS011;64938;47.696;8.066;2023-02-03T12:21:31;2.30;;;0.40;;
76176;SDS011;64938;47.696;8.066;2023-02-03T12:26:48;1.00;;;0.70;;
76176;SDS011;64938;47.696;8.066;2023-02-03T12:29:48;0.90;;;0.50;;
76176;SDS011;64938;47.696;8.066;2023-02-03T12:32:40;1.03;;;0.50;;
76176;SDS011;64938;47.696;8.066;2023-02-03T12:35:14;1.07;;;0.60;;
76176;SDS011;64938;47.696;8.066;2023-02-03T12:40:21;0.60;;;0.57;;
76176;SDS011;64938;47.696;8.066;2023-02-03T12:42:55;1.40;;;0.50;;
76176;SDS011;64938;47.696;8.066;2023-02-03T12:45:28;0.60;;;0.50;;
76176;SDS011;64938;47.696;8.066;2023-02-03T12:47:57;1.13;;;0.53;;
76176;SDS011;64938;47.696;8.066;2023-02-03T12:50:30;0.60;;;0.50;;
76176;SDS011;64938;47.696;8.066;2023-02-03T12:53:16;1.27;;;0.60;;
76176;SDS011;64938;47.696;8.066;2023-02-03T12:55:51;0.60;;;0.60;;
76176;SDS011;64938;47.696;8.066;2023-02-03T12:58:40;0.80;;;0.80;;
76176;SDS011;64938;47.696;8.066;2023-02-03T13:01:44;0.90;;;0.80;;
76176;SDS011;64938;47.696;8.066;2023-02-03T13:04:26;0.90;;;0.80;;
76176;SDS011;64938;47.696;8.066;2023-02-03T13:09:55;1.13;;;0.97;;
76176;SDS011;64938;47.696;8.066;2023-02-03T13:12:29;1.20;;;1.10;;
76176;SDS011;64938;47.696;8.066;2023-02-03T13:15:09;2.80;;;1.20;;
76176;SDS011;64938;47.696;8.066;2023-02-03T13:20:50;1.20;;;1.10;;
76176;SDS011;64938;47.696;8.066;2023-02-03T13:23:18;1.40;;;1.10;;
76176;SDS011;64938;47.696;8.066;2023-02-03T13:31:56;3.70;;;1.07;;
76176;SDS011;64938;47.696;8.066;2023-02-03T13:43:32;1.20;;;0.90;;
76176;SDS011;64938;47.696;8.066;2023-02-03T13:46:00;1.10;;;0.97;;
76176;SDS011;64938;47.696;8.066;2023-02-03T13:48:27;1.10;;;1.00;;
76176;SDS011;64938;47.696;8.066;2023-02-03T13:51:07;1.40;;;1.00;;
76176;SDS011;64938;47.696;8.066;2023-02-03T13:53:39;3.30;;;1.17;;
76176;SDS011;64938;47.696;8.066;2023-02-03T13:56:06;2.80;;;1.30;;
76176;SDS011;64938;47.696;8.066;2023-02-03T13:58:34;1.93;;;1.10;;
76176;SDS011;64938;47.696;8.066;2023-02-03T14:01:21;1.80;;;1.10;;
76176;SDS011;64938;47.696;8.066;2023-02-03T14:03:55;1.43;;;1.33;;
76176;SDS011;64938;47.696;8.066;2023-02-03T14:09:18;3.10;;;1.67;;
76176;SDS011;64938;47.696;8.066;2023-02-03T14:11:47;1.67;;;1.30;;
76176;SDS011;64938;47.696;8.066;2023-02-03T14:16:40;1.70;;;1.50;;
76176;SDS011;64938;47.696;8.066;2023-02-03T14:19:10;2.00;;;1.80;;
76176;SDS011;64938;47.696;8.066;2023-02-03T14:22:15;1.80;;;1.70;;
76176;SDS011;64938;47.696;8.066;2023-02-03T14:24:42;1.50;;;1.40;;
76176;SDS011;64938;47.696;8.066;2023-02-03T14:27:21;1.63;;;1.50;;
76176;SDS011;64938;47.696;8.066;2023-02-03T14:32:47;1.53;;;1.43;;
76176;SDS011;64938;47.696;8.066;2023-02-03T14:35:36;2.50;;;1.87;;
76176;SDS011;64938;47.696;8.066;2023-02-03T14:38:02;1.53;;;1.43;;
76176;SDS011;64938;47.696;8.066;2023-02-03T14:43:30;1.40;;;1.30;;
76176;SDS011;64938;47.696;8.066;2023-02-03T15:02:09;2.23;;;1.20;;
76176;SDS011;64938;47.696;8.066;2023-02-03T15:04:35;2.83;;;1.40;;
76176;SDS011;64938;47.696;8.066;2023-02-03T15:07:00;1.83;;;1.43;;
76176;SDS011;64938;47.696;8.066;2023-02-03T15:09:37;1.93;;;1.73;;
76176;SDS011;64938;47.696;8.066;2023-02-03T15:14:41;2.60;;;2.13;;
76176;SDS011;64938;47.696;8.066;2023-02-03T15:17:11;2.70;;;1.77;;
76176;SDS011;64938;47.696;8.066;2023-02-03T15:19:42;2.93;;;1.80;;
76176;SDS011;64938;47.696;8.066;2023-02-03T15:22:24;2.00;;;1.90;;
76176;SDS011;64938;47.696;8.066;2023-02-03T15:24:55;2.10;;;2.00;;
76176;SDS011;64938;47.696;8.066;2023-02-03T15:27:26;2.20;;;2.00;;
76176;SDS011;64938;47.696;8.066;2023-02-03T15:29:54;3.37;;;2.10;;
76176;SDS011;64938;47.696;8.066;2023-02-03T15:32:25;2.57;;;2.00;;
76176;SDS011;64938;47.696;8.066;2023-02-03T15:35:01;2.40;;;2.20;;
76176;SDS011;64938;47.696;8.066;2023-02-03T15:37:32;2.10;;;2.00;;
76176;SDS011;64938;47.696;8.066;2023-02-03T15:40:03;1.90;;;1.80;;
76176;SDS011;64938;47.696;8.066;2023-02-03T15:42:35;2.40;;;2.20;;
76176;SDS011;64938;47.696;8.066;2023-02-03T15:45:11;3.03;;;2.73;;
76176;SDS011;64938;47.696;8.066;2023-02-03T15:48:00;2.73;;;2.53;;
76176;SDS011;64938;47.696;8.066;2023-02-03T15:50:29;2.67;;;2.23;;
76176;SDS011;64938;47.696;8.066;2023-02-03T15:53:01;2.30;;;2.10;;
76176;SDS011;64938;47.696;8.066;2023-02-03T15:55:40;2.70;;;2.50;;
76176;SDS011;64938;47.696;8.066;2023-02-03T16:00:57;2.80;;;2.60;;
76176;SDS011;64938;47.696;8.066;2023-02-03T16:06:05;3.53;;;2.83;;
76176;SDS011;64938;47.696;8.066;2023-02-03T16:08:34;3.40;;;3.10;;
76176;SDS011;64938;47.696;8.066;2023-02-03T16:11:00;3.50;;;2.40;;
76176;SDS011;64938;47.696;8.066;2023-02-03T16:13:28;3.10;;;2.80;;
76176;SDS011;64938;47.696;8.066;2023-02-03T16:18:28;3.20;;;3.00;;
76176;SDS011;64938;47.696;8.066;2023-02-03T16:20:56;2.87;;;2.57;;
76176;SDS011;64938;47.696;8.066;2023-02-03T16:23:22;4.87;;;3.23;;
76176;SDS011;64938;47.696;8.066;2023-02-03T16:28:31;3.40;;;3.10;;
76176;SDS011;64938;47.696;8.066;2023-02-03T16:31:16;3.17;;;2.90;;
76176;SDS011;64938;47.696;8.066;2023-02-03T16:34:09;3.57;;;3.27;;
76176;SDS011;64938;47.696;8.066;2023-02-03T16:36:58;4.33;;;2.90;;
76176;SDS011;64938;47.696;8.066;2023-02-03T16:39:46;3.30;;;3.00;;
76176;SDS011;64938;47.696;8.066;2023-02-03T16:42:39;2.87;;;2.60;;
76176;SDS011;64938;47.696;8.066;2023-02-03T16:45:24;3.10;;;2.87;;
76176;SDS011;64938;47.696;8.066;2023-02-03T16:48:11;2.87;;;2.67;;
76176;SDS011;64938;47.696;8.066;2023-02-03T16:50:56;3.33;;;3.03;;
76176;SDS011;64938;47.696;8.066;2023-02-03T16:53:23;3.13;;;2.93;;
76176;SDS011;64938;47.696;8.066;2023-02-03T16:55:51;3.13;;;2.87;;
76176;SDS011;64938;47.696;8.066;2023-02-03T16:58:19;2.83;;;2.57;;
76176;SDS011;64938;47.696;8.066;2023-02-03T17:00:48;2.70;;;2.37;;
76176;SDS011;64938;47.696;8.066;2023-02-03T17:03:20;2.73;;;2.53;;
76176;SDS011;64938;47.696;8.066;2023-02-03T17:05:47;2.50;;;2.30;;
76176;SDS011;64938;47.696;8.066;2023-02-03T17:08:14;2.93;;;2.67;;
76176;SDS011;64938;47.696;8.066;2023-02-03T17:10:41;2.70;;;2.50;;
76176;SDS011;64938;47.696;8.066;2023-02-03T17:13:12;2.57;;;2.47;;
76176;SDS011;64938;47.696;8.066;2023-02-03T17:15:42;2.70;;;2.50;;
76176;SDS011;64938;47.696;8.066;2023-02-03T17:18:10;2.47;;;2.27;;
76176;SDS011;64938;47.696;8.066;2023-02-03T17:20:41;3.57;;;3.23;;
76176;SDS011;64938;47.696;8.066;2023-02-03T17:23:09;3.43;;;2.60;;
76176;SDS011;64938;47.696;8.066;2023-02-03T17:25:35;4.70;;;2.97;;
76176;SDS011;64938;47.696;8.066;2023-02-03T17:28:02;3.03;;;2.83;;
76176;SDS011;64938;47.696;8.066;2023-02-03T17:30:28;2.70;;;2.30;;